Portada
METAR-TAF:

METAR-TAF

Aeropuertos :

Aeropuerto Internacional de Yamena

Yamena, Chad

latitud: 12-08N, longitud: 015-02E, altitud: 295 m

Observación

El informe se hizo hace 26 minutos, a las 07:00 UTC
Viento 10 kt del norte
Temperatura 22°C
Humedad 21%
Presión 1013 hPa
Visibilidad: 4500 m
Polvo extendido

METAR: FTTJ 210700Z 01010KT 4500 DU NSC 22/M01 Q1013 NOSIG

Hora: 08:26 (07:26 UTC)

Pronóstico

El informe se hizo hace 2 horas y 26 minutos, a las 05:00 UTC
Pronóstico válido del 21 a las 06 UTC al 22 a las 12 UTC
Viento 12 kt del norte
Visibilidad: 7000 m
Temporalmente
del 22 a las 04 UTC al 22 a las 08 UTC
Visibilidad: 4000 m
Polvo extendido

TAF: FTTJ 210500Z 2106/2212 01012KT 7000 NSC TEMPO 2204/2208 4000 DU

Observaciones y pronósticos meteorológicos de más de 4000 aeropuertos (mensajes METAR y TAF).

Los puntos amarillos y rojos representan las estaciones disponibles.

Ponga el ratón en el punto deseado para ver el nombre de la estación.

Haga clic para ver las observaciones y los pronósticos meteorológicos.

Para cambiar el mapa : haga clic en los botones verdes con una cruz de color negro para hacer un zoom, en el botón verde con un guión para alejar o en las flechas verdes para mapas adyacentes.


METAR-TAF: